createdAt,value
2019-03-05T00:01:56.225Z,52.28
2019-03-05T00:04:24.898Z,52.35
2019-03-05T00:06:53.575Z,51.73
2019-03-05T00:09:22.344Z,51.33
2019-03-05T00:11:51.009Z,51.53
2019-03-05T00:14:21.292Z,51.76
2019-03-05T00:16:49.944Z,52.38
2019-03-05T00:19:18.609Z,52.80
2019-03-05T00:21:47.280Z,53.36
2019-03-05T00:24:51.900Z,53.23
2019-03-05T00:27:21.974Z,53.13
2019-03-05T00:30:12.922Z,53.10
2019-03-05T00:32:44.213Z,53.49
2019-03-05T00:35:27.514Z,54.40
2019-03-05T00:38:01.999Z,54.59
2019-03-05T00:40:36.525Z,53.95
2019-03-05T00:43:11.181Z,53.50
2019-03-05T00:45:54.560Z,54.05
2019-03-05T00:48:45.815Z,53.53
2019-03-05T00:51:36.580Z,53.48
2019-03-05T00:54:19.892Z,52.85
2019-03-05T00:57:09.690Z,51.90
2019-03-05T00:59:57.391Z,52.32
2019-03-05T01:02:34.548Z,51.91
2019-03-05T01:05:25.515Z,52.06
2019-03-05T01:07:54.511Z,52.39
2019-03-05T01:10:23.687Z,52.56
2019-03-05T01:12:52.499Z,52.51
2019-03-05T01:15:21.267Z,52.38
2019-03-05T01:17:49.946Z,52.14
2019-03-05T01:20:18.610Z,52.67
2019-03-05T01:22:47.277Z,52.05
2019-03-05T01:25:33.509Z,51.75
2019-03-05T01:28:02.380Z,51.65
2019-03-05T01:30:38.281Z,51.67
2019-03-05T01:33:08.907Z,51.31
2019-03-05T01:35:39.166Z,51.33
2019-03-05T01:38:07.833Z,51.52
2019-03-05T01:40:37.403Z,50.97
2019-03-05T01:43:06.064Z,51.39
2019-03-05T01:45:34.727Z,51.83
2019-03-05T01:48:03.400Z,51.89
2019-03-05T01:50:32.064Z,51.96
2019-03-05T01:53:00.739Z,51.48
2019-03-05T01:55:29.458Z,51.58
2019-03-05T01:57:58.125Z,51.33
2019-03-05T02:00:27.094Z,51.71
2019-03-05T02:02:55.778Z,51.45
2019-03-05T02:05:24.447Z,51.71
2019-03-05T02:07:54.016Z,51.99
2019-03-05T02:10:23.008Z,51.96
2019-03-05T02:12:51.680Z,51.85
2019-03-05T02:15:22.864Z,52.33
2019-03-05T02:17:51.543Z,51.52
2019-03-05T02:20:24.916Z,51.37
2019-03-05T02:23:02.389Z,51.87
2019-03-05T02:25:33.975Z,51.96
2019-03-05T02:28:36.724Z,52.46
2019-03-05T02:31:26.568Z,52.77
2019-03-05T02:34:12.963Z,52.75
2019-03-05T02:37:09.911Z,52.55
2019-03-05T02:39:53.515Z,53.30
2019-03-05T02:42:33.803Z,53.57
2019-03-05T02:45:23.349Z,52.96
2019-03-05T02:48:22.287Z,52.33
2019-03-05T02:51:16.121Z,52.64
2019-03-05T02:53:53.754Z,52.61
2019-03-05T02:56:34.107Z,52.54
2019-03-05T02:59:01.465Z,53.02
2019-03-05T03:01:31.710Z,52.55
2019-03-05T03:04:01.944Z,52.12
2019-03-05T03:06:31.130Z,52.39
2019-03-05T03:09:25.314Z,52.51
2019-03-05T03:11:53.984Z,53.03
2019-03-05T03:14:22.660Z,54.02
2019-03-05T03:16:51.327Z,53.68
2019-03-05T03:19:19.987Z,53.45
2019-03-05T03:21:48.674Z,53.98
2019-03-05T03:24:17.339Z,54.45
2019-03-05T03:26:46.019Z,54.86
2019-03-05T03:29:14.686Z,54.38
2019-03-05T03:31:43.362Z,53.92
2019-03-05T03:34:12.142Z,54.13
2019-03-05T03:36:40.808Z,54.90
2019-03-05T03:39:09.621Z,54.82
2019-03-05T03:41:38.263Z,54.50
2019-03-05T03:44:06.937Z,54.15
2019-03-05T03:46:35.599Z,54.46
2019-03-05T03:49:04.287Z,54.45
2019-03-05T03:51:32.980Z,54.35
2019-03-05T03:54:01.686Z,54.78
2019-03-05T03:56:30.363Z,54.85
2019-03-05T03:58:59.047Z,55.05
2019-03-05T04:01:27.707Z,55.53
2019-03-05T04:03:56.506Z,56.02
2019-03-05T04:06:25.182Z,56.10
2019-03-05T04:08:53.852Z,55.73
2019-03-05T04:11:22.639Z,55.56
2019-03-05T04:13:51.301Z,55.29
2019-03-05T04:16:19.998Z,55.06
2019-03-05T04:18:48.698Z,55.70
2019-03-05T04:21:19.931Z,55.46
2019-03-05T04:23:47.769Z,55.35
2019-03-05T04:26:16.431Z,55.37
2019-03-05T04:28:45.098Z,55.49
2019-03-05T04:31:13.779Z,55.64
2019-03-05T04:33:42.448Z,55.82
2019-03-05T04:36:11.130Z,56.31
2019-03-05T04:38:39.795Z,56.05
2019-03-05T04:41:08.476Z,55.86
2019-03-05T04:43:37.143Z,55.75
2019-03-05T04:46:10.216Z,54.72
2019-03-05T04:48:38.879Z,54.77
2019-03-05T04:51:11.810Z,54.88
2019-03-05T04:53:40.478Z,55.30
2019-03-05T04:56:09.139Z,55.86
2019-03-05T04:58:37.896Z,56.01
2019-03-05T05:01:06.568Z,55.73
2019-03-05T05:03:35.234Z,56.38
2019-03-05T05:06:03.915Z,55.88
2019-03-05T05:08:32.579Z,55.31
2019-03-05T05:11:01.244Z,55.56
2019-03-05T05:13:29.906Z,54.48
2019-03-05T05:15:58.573Z,54.08
2019-03-05T05:18:27.270Z,53.96
2019-03-05T05:20:55.944Z,53.53
2019-03-05T05:23:24.641Z,53.46
2019-03-05T05:25:53.303Z,53.61
2019-03-05T05:28:21.966Z,53.67
2019-03-05T05:30:50.643Z,53.73
2019-03-05T05:33:19.329Z,53.66
2019-03-05T05:35:47.991Z,53.28
2019-03-05T05:38:16.677Z,52.06
2019-03-05T05:40:47.441Z,51.26
2019-03-05T05:43:22.005Z,50.47
2019-03-05T05:45:52.480Z,49.42
2019-03-05T05:48:21.159Z,49.03
2019-03-05T05:50:49.829Z,48.62
2019-03-05T05:53:18.529Z,47.88
2019-03-05T05:55:48.002Z,47.13
2019-03-05T05:58:16.809Z,45.92
2019-03-05T06:00:50.018Z,45.51
2019-03-05T06:03:18.685Z,45.33
2019-03-05T06:05:47.371Z,45.52
2019-03-05T06:08:16.115Z,45.98
2019-03-05T06:10:44.897Z,46.42
2019-03-05T06:13:13.563Z,46.96
2019-03-05T06:15:42.229Z,47.20
2019-03-05T06:18:11.114Z,47.18
2019-03-05T06:20:42.429Z,45.98
2019-03-05T06:23:10.317Z,44.80
2019-03-05T06:25:40.452Z,42.51
2019-03-05T06:28:09.129Z,41.38
2019-03-05T06:30:40.117Z,40.77
2019-03-05T06:33:08.787Z,40.26
2019-03-05T06:35:37.479Z,41.69
2019-03-05T06:38:06.130Z,43.29
2019-03-05T06:40:34.829Z,43.79
2019-03-05T06:43:03.588Z,43.88
2019-03-05T06:45:32.308Z,42.69
2019-03-05T06:48:00.982Z,40.69
2019-03-05T06:50:30.123Z,38.64
2019-03-05T06:52:58.783Z,37.33
2019-03-05T06:55:27.454Z,34.99
2019-03-05T06:57:58.458Z,34.46
2019-03-05T07:00:36.662Z,33.31
2019-03-05T07:03:07.694Z,32.75
2019-03-05T07:06:12.603Z,33.03
2019-03-05T07:08:47.191Z,32.21
2019-03-05T07:11:36.937Z,29.40
2019-03-05T07:14:23.671Z,29.48
2019-03-05T07:17:07.336Z,28.09
2019-03-05T07:19:44.922Z,27.97
2019-03-05T07:22:22.879Z,28.08
2019-03-05T07:24:51.826Z,26.94
2019-03-05T07:27:23.811Z,26.63
2019-03-05T07:29:53.081Z,25.97
2019-03-05T07:32:21.781Z,25.18
2019-03-05T07:34:52.264Z,24.63
2019-03-05T07:37:20.927Z,24.01
2019-03-05T07:39:49.689Z,24.25
2019-03-05T07:42:18.384Z,24.09
2019-03-05T07:44:47.588Z,23.29
2019-03-05T07:47:16.412Z,22.45
2019-03-05T07:49:45.105Z,22.15
2019-03-05T07:52:13.956Z,24.10
2019-03-05T07:54:44.206Z,23.29
2019-03-05T07:57:12.938Z,23.26
2019-03-05T07:59:41.596Z,22.12
2019-03-05T08:02:12.364Z,21.37
2019-03-05T08:04:41.085Z,21.46
2019-03-05T08:07:09.906Z,19.80
2019-03-05T08:09:39.108Z,19.99
2019-03-05T08:12:19.761Z,19.22
2019-03-05T08:15:03.523Z,19.49
2019-03-05T08:17:32.340Z,19.80
2019-03-05T08:20:02.741Z,19.24
2019-03-05T08:22:31.532Z,18.75
2019-03-05T08:25:00.354Z,19.72
2019-03-05T08:27:29.125Z,20.17
2019-03-05T08:29:57.902Z,20.85
2019-03-05T08:32:26.621Z,21.66
2019-03-05T08:34:58.477Z,22.71
2019-03-05T08:37:27.589Z,23.55
2019-03-05T08:39:56.509Z,21.80
2019-03-05T08:42:26.875Z,20.84
2019-03-05T08:44:55.676Z,20.27
2019-03-05T08:47:24.344Z,20.24
2019-03-05T08:49:53.072Z,20.69
2019-03-05T08:52:22.071Z,19.21
2019-03-05T08:54:50.752Z,17.72
2019-03-05T08:57:19.444Z,17.63
2019-03-05T08:59:48.167Z,17.41
2019-03-05T09:02:16.833Z,16.26
2019-03-05T09:04:45.511Z,15.60
2019-03-05T09:07:17.348Z,16.16
2019-03-05T09:09:46.103Z,15.61
2019-03-05T09:12:15.024Z,15.19
2019-03-05T09:14:43.799Z,15.48
2019-03-05T09:17:12.861Z,15.03
2019-03-05T09:19:41.588Z,15.30
2019-03-05T09:22:10.365Z,14.87
2019-03-05T09:24:39.144Z,13.97
2019-03-05T09:27:07.890Z,13.34
2019-03-05T09:29:36.639Z,13.12
2019-03-05T09:32:05.403Z,13.25
2019-03-05T09:34:34.301Z,14.14
2019-03-05T09:37:03.037Z,14.26
2019-03-05T09:39:31.888Z,13.64
2019-03-05T09:42:00.733Z,13.71
2019-03-05T09:44:29.578Z,15.76
2019-03-05T09:46:58.382Z,14.25
2019-03-05T09:49:27.040Z,14.71
2019-03-05T09:51:55.775Z,14.44
2019-03-05T09:54:24.467Z,13.90
2019-03-05T09:56:53.229Z,15.28
2019-03-05T09:59:22.144Z,14.51
2019-03-05T10:01:51.523Z,13.12
2019-03-05T10:04:20.287Z,13.04
2019-03-05T10:06:49.114Z,13.77
2019-03-05T10:09:19.750Z,14.16
2019-03-05T10:11:48.504Z,14.61
2019-03-05T10:14:17.403Z,15.22
2019-03-05T10:16:46.099Z,16.38
2019-03-05T10:19:14.898Z,15.97
2019-03-05T10:21:46.441Z,16.41
2019-03-05T10:24:14.724Z,17.68
2019-03-05T10:26:43.665Z,17.68
2019-03-05T10:29:12.461Z,18.32
2019-03-05T10:31:41.168Z,18.64
2019-03-05T10:34:13.196Z,17.76
2019-03-05T10:36:41.882Z,16.22
2019-03-05T10:39:29.927Z,14.88
2019-03-05T10:41:52.477Z,13.49
2019-03-05T10:44:21.209Z,13.49
2019-03-05T10:46:49.990Z,14.72
2019-03-05T10:49:18.684Z,14.55
2019-03-05T10:51:47.509Z,13.59
2019-03-05T10:54:16.267Z,13.96
2019-03-05T10:56:45.037Z,14.74
2019-03-05T10:59:13.873Z,16.02
2019-03-05T11:01:42.954Z,17.64
2019-03-05T11:04:11.679Z,16.83
2019-03-05T11:06:40.413Z,16.43
2019-03-05T11:09:09.912Z,16.02
2019-03-05T11:11:38.576Z,16.24
2019-03-05T11:14:07.837Z,16.31
2019-03-05T11:16:36.495Z,16.64
2019-03-05T11:19:05.584Z,16.85
2019-03-05T11:21:34.369Z,16.87
2019-03-05T11:24:03.358Z,16.88
2019-03-05T11:26:32.206Z,17.54
2019-03-05T11:29:00.851Z,17.45
2019-03-05T11:31:29.532Z,17.89
2019-03-05T11:33:58.322Z,18.89
2019-03-05T11:36:27.299Z,18.71
2019-03-05T11:38:56.079Z,19.78
2019-03-05T11:41:24.766Z,21.22
2019-03-05T11:43:54.922Z,22.70
2019-03-05T11:46:23.675Z,23.78
2019-03-05T11:48:52.402Z,24.54
2019-03-05T11:51:21.302Z,25.76
2019-03-05T11:53:50.166Z,25.71
2019-03-05T11:56:18.877Z,26.05
2019-03-05T11:58:47.619Z,26.02
2019-03-05T12:01:26.212Z,23.71
2019-03-05T12:03:55.014Z,22.99
2019-03-05T12:06:23.788Z,22.06
2019-03-05T12:08:52.778Z,22.38
2019-03-05T12:11:21.659Z,21.78
2019-03-05T12:13:50.527Z,21.88
2019-03-05T12:16:19.215Z,22.23
2019-03-05T12:18:47.924Z,23.20
2019-03-05T12:21:16.708Z,22.96
2019-03-05T12:23:47.346Z,23.03
2019-03-05T12:26:16.117Z,21.95
2019-03-05T12:28:44.882Z,21.49
2019-03-05T12:31:13.649Z,20.14
2019-03-05T12:33:42.419Z,20.11
2019-03-05T12:36:11.804Z,17.14
2019-03-05T12:38:40.764Z,15.00
2019-03-05T12:41:09.515Z,14.87
2019-03-05T12:43:38.261Z,16.01
2019-03-05T12:46:07.034Z,16.83
2019-03-05T12:48:40.031Z,18.02
2019-03-05T12:51:06.174Z,18.19
2019-03-05T12:53:35.011Z,19.22
2019-03-05T12:56:03.683Z,20.60
2019-03-05T12:58:32.596Z,21.84
2019-03-05T13:01:01.334Z,22.49
2019-03-05T13:03:30.663Z,22.94
2019-03-05T13:05:59.543Z,23.77
2019-03-05T13:08:28.805Z,23.19
2019-03-05T13:10:57.604Z,24.70
2019-03-05T13:13:26.440Z,25.34
2019-03-05T13:15:56.488Z,25.76
2019-03-05T13:18:26.913Z,26.13
2019-03-05T13:20:56.166Z,26.40
2019-03-05T13:23:25.038Z,26.95
2019-03-05T13:25:53.715Z,27.34
2019-03-05T13:28:22.432Z,28.04
2019-03-05T13:30:51.256Z,28.27
2019-03-05T13:33:19.903Z,28.69
2019-03-05T13:35:48.596Z,28.80
2019-03-05T13:38:17.288Z,29.01
2019-03-05T13:40:45.983Z,29.60
2019-03-05T13:43:14.703Z,29.87
2019-03-05T13:45:49.171Z,29.99
2019-03-05T13:48:29.305Z,30.40
2019-03-05T13:51:19.588Z,30.49
2019-03-05T13:54:17.858Z,30.74
2019-03-05T13:57:22.854Z,30.71
2019-03-05T13:59:51.631Z,30.43
2019-03-05T14:02:25.861Z,30.51
2019-03-05T14:05:06.215Z,30.40
2019-03-05T14:07:50.092Z,30.45
2019-03-05T14:10:18.940Z,30.39
2019-03-05T14:12:47.634Z,30.29
2019-03-05T14:15:17.020Z,29.99
2019-03-05T14:17:46.161Z,30.23
2019-03-05T14:20:17.970Z,30.45
2019-03-05T14:22:46.708Z,30.64
2019-03-05T14:25:16.462Z,30.97
2019-03-05T14:27:45.201Z,31.14
2019-03-05T14:30:20.979Z,31.10
2019-03-05T14:32:50.189Z,30.96
2019-03-05T14:35:20.085Z,31.57
2019-03-05T14:37:48.991Z,31.56
2019-03-05T14:40:24.479Z,31.56
2019-03-05T14:42:51.123Z,31.84
2019-03-05T14:45:22.772Z,31.97
2019-03-05T14:47:52.874Z,32.52
2019-03-05T14:50:21.586Z,32.44
2019-03-05T14:52:50.400Z,32.64
2019-03-05T14:55:19.127Z,32.66
2019-03-05T14:57:48.008Z,32.69
2019-03-05T15:00:19.384Z,32.94
2019-03-05T15:02:48.134Z,33.04
2019-03-05T15:05:16.989Z,33.35
2019-03-05T15:07:46.073Z,32.85
2019-03-05T15:10:14.832Z,32.88
2019-03-05T15:12:43.621Z,33.06
2019-03-05T15:15:21.190Z,32.77
2019-03-05T15:17:50.278Z,32.69
2019-03-05T15:20:19.015Z,32.77
2019-03-05T15:22:47.718Z,33.24
2019-03-05T15:25:17.506Z,33.04
2019-03-05T15:27:46.408Z,33.10
2019-03-05T15:30:20.481Z,32.80
2019-03-05T15:32:49.234Z,33.13
2019-03-05T15:35:17.987Z,33.03
2019-03-05T15:37:46.688Z,34.08
2019-03-05T15:40:17.186Z,33.46
2019-03-05T15:42:46.020Z,33.28
2019-03-05T15:45:24.969Z,33.39
2019-03-05T15:47:53.671Z,33.88
2019-03-05T15:50:25.199Z,34.21
2019-03-05T15:52:53.885Z,34.39
2019-03-05T15:55:22.592Z,35.17
2019-03-05T15:57:51.446Z,35.48
2019-03-05T16:00:29.188Z,36.12
2019-03-05T16:02:58.026Z,36.35
2019-03-05T16:05:30.368Z,36.89
2019-03-05T16:08:00.877Z,37.32
2019-03-05T16:10:31.891Z,37.43
2019-03-05T16:13:00.584Z,36.63
2019-03-05T16:15:29.303Z,37.01
2019-03-05T16:18:01.343Z,37.75
2019-03-05T16:20:29.778Z,37.41
2019-03-05T16:22:58.565Z,37.44
2019-03-05T16:25:27.266Z,37.78
2019-03-05T16:27:56.155Z,38.17
2019-03-05T16:30:47.373Z,40.16
2019-03-05T16:33:23.999Z,40.00
2019-03-05T16:36:03.437Z,39.23
2019-03-05T16:38:51.117Z,39.36
2019-03-05T16:41:34.056Z,39.34
2019-03-05T16:44:16.270Z,39.65
2019-03-05T16:46:58.755Z,40.01
2019-03-05T16:49:29.364Z,40.18
2019-03-05T16:52:02.388Z,40.34
2019-03-05T16:54:32.628Z,40.55
2019-03-05T16:57:08.925Z,40.75
2019-03-05T16:59:39.472Z,40.86
2019-03-05T17:02:16.802Z,41.24
2019-03-05T17:04:50.234Z,41.48
2019-03-05T17:07:22.911Z,41.52
2019-03-05T17:09:53.142Z,41.94
2019-03-05T17:12:21.890Z,42.27
2019-03-05T17:14:50.659Z,42.60
2019-03-05T17:17:19.391Z,42.86
2019-03-05T17:19:48.800Z,43.16
2019-03-05T17:22:17.521Z,43.29
2019-03-05T17:24:46.480Z,43.51
2019-03-05T17:27:15.155Z,43.46
2019-03-05T17:29:43.824Z,43.58
2019-03-05T17:32:12.821Z,43.84
2019-03-05T17:34:41.471Z,44.56
2019-03-05T17:37:10.175Z,44.34
2019-03-05T17:39:38.823Z,44.70
2019-03-05T17:42:07.509Z,44.67
2019-03-05T17:44:36.335Z,44.91
2019-03-05T17:47:05.086Z,44.92
2019-03-05T17:49:33.747Z,45.14
2019-03-05T17:52:02.582Z,45.49
2019-03-05T17:54:31.229Z,45.40
2019-03-05T17:57:00.092Z,45.28
2019-03-05T17:59:29.034Z,45.59
2019-03-05T18:01:57.727Z,45.61
2019-03-05T18:04:26.500Z,45.63
2019-03-05T18:06:55.179Z,45.72
2019-03-05T18:09:23.845Z,45.92
2019-03-05T18:11:52.605Z,46.25
2019-03-05T18:14:21.291Z,46.32
2019-03-05T18:16:49.987Z,46.56
2019-03-05T18:19:18.662Z,46.78
2019-03-05T18:21:47.379Z,46.96
2019-03-05T18:24:16.044Z,47.33
2019-03-05T18:26:44.719Z,47.69
2019-03-05T18:29:13.462Z,47.97
2019-03-05T18:31:42.149Z,48.14
2019-03-05T18:34:10.936Z,48.29
2019-03-05T18:36:39.657Z,48.62
2019-03-05T18:39:08.648Z,48.97
2019-03-05T18:41:37.379Z,49.03
2019-03-05T18:44:06.151Z,49.38
2019-03-05T18:46:34.861Z,49.41
2019-03-05T18:49:03.720Z,49.45
2019-03-05T18:51:32.537Z,49.26
2019-03-05T18:54:01.242Z,49.22
2019-03-05T18:56:29.907Z,49.50
2019-03-05T18:58:58.587Z,49.48
2019-03-05T19:01:27.292Z,49.34
2019-03-05T19:03:55.998Z,49.32
2019-03-05T19:06:24.758Z,49.24
2019-03-05T19:08:53.427Z,49.42
2019-03-05T19:11:22.139Z,49.34
2019-03-05T19:13:50.811Z,49.41
2019-03-05T19:16:19.486Z,49.72
2019-03-05T19:18:48.149Z,50.00
2019-03-05T19:21:16.835Z,50.83
2019-03-05T19:23:45.562Z,50.52
2019-03-05T19:26:14.208Z,50.63
2019-03-05T19:28:42.924Z,51.17
2019-03-05T19:31:11.616Z,51.13
2019-03-05T19:33:40.303Z,50.92
2019-03-05T19:36:08.966Z,50.88
2019-03-05T19:38:37.649Z,50.97
2019-03-05T19:41:06.317Z,50.95
2019-03-05T19:43:34.990Z,50.76
2019-03-05T19:46:03.689Z,50.76
2019-03-05T19:48:32.333Z,50.81
2019-03-05T19:51:01.019Z,50.55
2019-03-05T19:53:29.703Z,50.71
2019-03-05T19:55:58.810Z,50.72
2019-03-05T19:58:27.474Z,50.66
2019-03-05T20:01:03.763Z,50.75
2019-03-05T20:03:32.499Z,50.91
2019-03-05T20:06:01.270Z,50.97
2019-03-05T20:08:39.152Z,50.99
2019-03-05T20:11:00.458Z,51.12
2019-03-05T20:13:29.218Z,51.68
2019-03-05T20:15:58.101Z,52.70
2019-03-05T20:18:26.845Z,52.93
2019-03-05T20:20:55.571Z,52.76
2019-03-05T20:23:24.712Z,52.31
2019-03-05T20:25:53.696Z,52.22
2019-03-05T20:28:22.359Z,51.83
2019-03-05T20:30:51.099Z,52.02
2019-03-05T20:33:19.799Z,51.96
2019-03-05T20:35:49.055Z,52.45
2019-03-05T20:38:17.728Z,52.62
2019-03-05T20:40:46.413Z,53.72
2019-03-05T20:43:16.117Z,54.03
2019-03-05T20:45:47.239Z,54.42
2019-03-05T20:48:16.206Z,57.80
2019-03-05T20:50:44.980Z,57.08
2019-03-05T20:53:13.652Z,57.55
2019-03-05T20:55:42.485Z,59.35
2019-03-05T20:58:11.184Z,58.90
2019-03-05T21:00:40.660Z,57.78
2019-03-05T21:03:10.777Z,58.50
2019-03-05T21:05:48.128Z,59.48
2019-03-05T21:08:16.829Z,59.98
2019-03-05T21:10:45.611Z,60.19
2019-03-05T21:13:16.383Z,60.22
2019-03-05T21:15:45.056Z,61.26
2019-03-05T21:18:15.343Z,61.08
2019-03-05T21:20:44.035Z,61.52
2019-03-05T21:23:12.698Z,64.32
2019-03-05T21:25:41.405Z,65.22
2019-03-05T21:28:10.107Z,67.57
2019-03-05T21:30:38.746Z,68.92
2019-03-05T21:33:07.449Z,71.57
2019-03-05T21:35:36.150Z,74.23
2019-03-05T21:38:04.815Z,74.88
2019-03-05T21:40:34.088Z,76.24
2019-03-05T21:43:02.883Z,76.06
2019-03-05T21:45:34.401Z,77.01
2019-03-05T21:48:03.662Z,75.78
2019-03-05T21:50:32.883Z,76.55
2019-03-05T21:53:01.778Z,77.14
2019-03-05T21:55:30.434Z,76.54
2019-03-05T21:57:59.105Z,77.71
2019-03-05T22:00:32.555Z,77.08
2019-03-05T22:03:02.264Z,77.64
2019-03-05T22:05:32.287Z,74.95
2019-03-05T22:08:00.913Z,76.93
2019-03-05T22:10:30.068Z,79.23
2019-03-05T22:12:58.859Z,80.73
2019-03-05T22:15:30.398Z,79.74
2019-03-05T22:17:59.062Z,79.67
2019-03-05T22:20:28.031Z,80.88
2019-03-05T22:22:57.087Z,80.54
2019-03-05T22:25:26.366Z,80.18
2019-03-05T22:27:55.066Z,81.17
2019-03-05T22:30:34.706Z,80.72
2019-03-05T22:33:03.367Z,78.67
2019-03-05T22:35:32.068Z,78.08
2019-03-05T22:38:00.766Z,77.89
2019-03-05T22:40:30.084Z,79.17
2019-03-05T22:42:58.729Z,77.13
2019-03-05T22:45:31.914Z,75.34
2019-03-05T22:48:00.616Z,74.56
2019-03-05T22:50:29.304Z,76.90
2019-03-05T22:52:57.965Z,76.97
2019-03-05T22:55:26.638Z,77.27
2019-03-05T22:57:55.590Z,76.45
2019-03-05T23:00:43.956Z,74.91
2019-03-05T23:03:15.354Z,76.31
2019-03-05T23:05:44.016Z,75.75
2019-03-05T23:08:12.673Z,75.99
2019-03-05T23:10:41.341Z,75.88
2019-03-05T23:13:10.103Z,75.46
2019-03-05T23:15:39.063Z,76.75
2019-03-05T23:18:07.723Z,76.08
2019-03-05T23:20:36.504Z,76.69
2019-03-05T23:23:05.270Z,77.34
2019-03-05T23:25:33.941Z,77.68
2019-03-05T23:28:02.601Z,75.52
2019-03-05T23:30:31.591Z,75.47
2019-03-05T23:33:00.248Z,74.73
2019-03-05T23:35:28.929Z,75.66
2019-03-05T23:37:57.808Z,74.46
2019-03-05T23:40:26.478Z,75.13
2019-03-05T23:42:55.200Z,75.17
2019-03-05T23:45:23.881Z,74.96
2019-03-05T23:47:52.534Z,75.86
2019-03-05T23:50:21.206Z,74.78
2019-03-05T23:52:49.918Z,74.36
2019-03-05T23:55:18.984Z,74.52
2019-03-05T23:57:47.726Z,74.82
